Magherafelt, United Kingdom
Current Conditions -  °F | °C
As of 8:50 AM on Wednesday 22 Oct 2014 (Local Time) from EGAA Reporting Station
Light Rain Light Rain  
Wind Chill: 44°   Ceiling: 2100
Heat Index: 48°   Visibility: 5mi
Dew Point: 45°   Wind: 10mph
Humidity: 87%   Direction: 220°SW
Pressure: 30.15"   Gusts: NA
Location:  54.75°N, 6.61°W
Report Text: EGAA 220750Z 22009KT 8000 -RA BKN021 09/07 Q1021
Loading
Personal Weather Stations






























Interactive Weather Map
Tropical Storm Tracking
New forecast layout! Learn more

10-Day Weather Forecast

Advertisements
Track Severe Weather on mobile